Monmouth, IL

6:15 PM CST on February 01, 2015 (GMT -0600)
Monmoth | Change Station
CLOSE
Current Station
Personal Weather Station
Location: Monmouth, IL
Elevation: 768 ft
Nearby Weather Stations
Active Advisory: Winter Storm Warning

Elev 768 ft 40.89 °N, 90.58 °W | Updated 1 minute ago

Snow
Snow
18.1 °F
Feels Like 1 °F
N
21.0
Wind Variable Wind from NNW
Gusts 33.0 mph

Today
High -- | Low -- °F
--% Chance of Precip.
Yesterday
High -- | Low -- °F
Precip. -- in
7:13 AM 5:19 PM
Waxing Gibbous, 96% visible
Pressure 29.83 in
Visibility 2.0 miles
Clouds Overcast 1200 ft
Windchill 1 °F
Dew Point 16 °F
Humidity 92%
Rainfall 0.20 in
Snow Depth Not available.
UV 0 out of 12
Pollen .10 out of 12
Air Quality Not available.
Flu Activity Not available.
METAR KGBG 012355Z AUTO 36022G28KT 2SM -SN OVC012 M07/M09 A2983 RMK AO2 T10751087 10000 21075

More Conditions Fewer Conditions

Pressure 29.83 in
Visibility 2.0 miles
Clouds Overcast 1200 ft
Windchill 1 °F
Dew Point 16 °F
Humidity 92%
Rainfall 0.20 in
Snow Depth Not available.
UV 0 out of 12
Pollen .10 out of 12
Air Quality Not available.
Flu Activity Not available.
METAR KGBG 012355Z AUTO 36022G28KT 2SM -SN OVC012 M07/M09 A2983 RMK AO2 T10751087 10000 21075

More Conditions Fewer Conditions

10-Day Weather Forecast

Almanac

Astronomy

Feb. 01, 2015 Rise Set
Actual Time
Civil Twilight
Nautical Twilight
Astronomical Twilight
Moon
Length of Visible Light
Length of Day
Tomorrow will be .
, % of the Moon is Illuminated

Today's Extremes

State Highs State Lows

Community

WunderPhotos

Upload Photos

1,792,619 photos uploaded!

WunderBlogs® & News

Nearby

Air Quality

  Air Quality AQ Index Pollutant
Not available.

Snow Depth

Station Depth Elevation

Earthquake Activity

City Distance Mag. Time & Date
Minimum magnitude displayed is 2.5.

Coastal Water Temperatures

Place Temperature

Nearby Weather Stations